sensor_id;sensor_type;location;lat;lon;timestamp;pressure;altitude;pressure_sealevel;temperature;humidity
40794;BME280;26502;51.886;15.604;2022-11-15T00:03:01;100830.86;;;2.05;74.83
40794;BME280;26502;51.886;15.604;2022-11-15T00:08:30;100828.02;;;2.00;74.88
40794;BME280;26502;51.886;15.604;2022-11-15T00:13:58;100823.07;;;1.87;74.81
40794;BME280;26502;51.886;15.604;2022-11-15T00:19:26;100822.33;;;1.82;75.22
40794;BME280;26502;51.886;15.604;2022-11-15T00:24:52;100812.42;;;1.97;75.51
40794;BME280;26502;51.886;15.604;2022-11-15T00:30:18;100808.60;;;2.02;75.54
40794;BME280;26502;51.886;15.604;2022-11-15T00:36:06;100798.96;;;2.01;75.36
40794;BME280;26502;51.886;15.604;2022-11-15T00:41:33;100801.36;;;1.89;75.02
40794;BME280;26502;51.886;15.604;2022-11-15T00:46:58;100803.80;;;1.85;75.57
40794;BME280;26502;51.886;15.604;2022-11-15T00:52:24;100797.45;;;1.80;75.37
40794;BME280;26502;51.886;15.604;2022-11-15T00:57:49;100796.20;;;1.74;75.79
40794;BME280;26502;51.886;15.604;2022-11-15T01:03:15;100797.13;;;1.83;75.47
40794;BME280;26502;51.886;15.604;2022-11-15T01:08:41;100795.63;;;1.66;75.15
40794;BME280;26502;51.886;15.604;2022-11-15T01:14:07;100791.95;;;1.67;75.62
40794;BME280;26502;51.886;15.604;2022-11-15T01:19:33;100783.56;;;1.71;75.67
40794;BME280;26502;51.886;15.604;2022-11-15T01:24:59;100776.02;;;1.69;75.99
40794;BME280;26502;51.886;15.604;2022-11-15T01:30:25;100772.06;;;1.79;75.68
40794;BME280;26502;51.886;15.604;2022-11-15T01:35:51;100772.75;;;1.76;75.53
40794;BME280;26502;51.886;15.604;2022-11-15T01:41:22;100763.63;;;1.74;75.92
40794;BME280;26502;51.886;15.604;2022-11-15T01:46:49;100756.33;;;1.82;75.76
40794;BME280;26502;51.886;15.604;2022-11-15T01:52:17;100749.96;;;1.72;75.53
40794;BME280;26502;51.886;15.604;2022-11-15T01:57:46;100743.27;;;1.63;75.65
40794;BME280;26502;51.886;15.604;2022-11-15T02:03:13;100736.44;;;1.65;75.68
40794;BME280;26502;51.886;15.604;2022-11-15T02:08:39;100728.89;;;1.59;75.71
40794;BME280;26502;51.886;15.604;2022-11-15T02:14:06;100722.95;;;1.60;75.89
40794;BME280;26502;51.886;15.604;2022-11-15T02:25:39;100703.26;;;1.44;75.66
40794;BME280;26502;51.886;15.604;2022-11-15T02:31:13;100705.67;;;1.38;75.60
40794;BME280;26502;51.886;15.604;2022-11-15T02:36:47;100706.39;;;1.39;75.45
40794;BME280;26502;51.886;15.604;2022-11-15T02:42:18;100695.89;;;1.41;75.73
40794;BME280;26502;51.886;15.604;2022-11-15T02:48:00;100694.45;;;1.32;75.54
40794;BME280;26502;51.886;15.604;2022-11-15T02:53:29;100696.48;;;1.21;75.53
40794;BME280;26502;51.886;15.604;2022-11-15T02:59:13;100688.75;;;1.17;75.43
40794;BME280;26502;51.886;15.604;2022-11-15T03:04:47;100684.00;;;1.12;75.57
40794;BME280;26502;51.886;15.604;2022-11-15T03:10:20;100680.55;;;1.21;75.69
40794;BME280;26502;51.886;15.604;2022-11-15T03:15:55;100678.80;;;1.20;75.56
40794;BME280;26502;51.886;15.604;2022-11-15T03:21:23;100674.81;;;1.25;75.57
40794;BME280;26502;51.886;15.604;2022-11-15T03:26:49;100676.19;;;1.21;75.65
40794;BME280;26502;51.886;15.604;2022-11-15T03:32:19;100671.09;;;1.16;75.72
40794;BME280;26502;51.886;15.604;2022-11-15T03:37:52;100667.08;;;1.19;75.65
40794;BME280;26502;51.886;15.604;2022-11-15T03:43:28;100661.11;;;1.13;75.69
40794;BME280;26502;51.886;15.604;2022-11-15T03:49:02;100656.40;;;1.19;75.82
40794;BME280;26502;51.886;15.604;2022-11-15T03:54:30;100650.60;;;1.12;75.60
40794;BME280;26502;51.886;15.604;2022-11-15T03:59:57;100655.68;;;1.14;75.68
40794;BME280;26502;51.886;15.604;2022-11-15T04:05:23;100659.02;;;1.15;75.76
40794;BME280;26502;51.886;15.604;2022-11-15T04:10:50;100664.91;;;1.07;75.58
40794;BME280;26502;51.886;15.604;2022-11-15T04:16:16;100650.21;;;1.05;75.61
40794;BME280;26502;51.886;15.604;2022-11-15T04:21:43;100647.19;;;0.98;75.67
40794;BME280;26502;51.886;15.604;2022-11-15T04:27:26;100646.98;;;0.92;75.82
40794;BME280;26502;51.886;15.604;2022-11-15T04:32:53;100641.00;;;0.89;75.61
40794;BME280;26502;51.886;15.604;2022-11-15T04:38:19;100635.80;;;0.91;76.02
40794;BME280;26502;51.886;15.604;2022-11-15T04:43:45;100635.41;;;0.86;75.71
40794;BME280;26502;51.886;15.604;2022-11-15T04:49:12;100639.15;;;0.72;75.64
40794;BME280;26502;51.886;15.604;2022-11-15T04:54:39;100640.21;;;0.74;76.03
40794;BME280;26502;51.886;15.604;2022-11-15T05:00:09;100636.23;;;0.80;75.88
40794;BME280;26502;51.886;15.604;2022-11-15T05:05:35;100624.91;;;0.87;75.94
40794;BME280;26502;51.886;15.604;2022-11-15T05:11:01;100627.20;;;0.91;76.04
40794;BME280;26502;51.886;15.604;2022-11-15T05:16:27;100617.91;;;0.84;75.80
40794;BME280;26502;51.886;15.604;2022-11-15T05:21:52;100615.98;;;0.86;76.10
40794;BME280;26502;51.886;15.604;2022-11-15T05:27:18;100626.73;;;0.72;75.67
40794;BME280;26502;51.886;15.604;2022-11-15T05:32:44;100623.56;;;0.67;75.95
40794;BME280;26502;51.886;15.604;2022-11-15T05:38:10;100618.00;;;0.73;75.98
40794;BME280;26502;51.886;15.604;2022-11-15T05:43:37;100616.30;;;0.80;76.08
40794;BME280;26502;51.886;15.604;2022-11-15T05:49:07;100618.91;;;0.77;75.78
40794;BME280;26502;51.886;15.604;2022-11-15T05:54:37;100613.75;;;0.65;75.98
40794;BME280;26502;51.886;15.604;2022-11-15T06:00:05;100617.48;;;0.72;75.95
40794;BME280;26502;51.886;15.604;2022-11-15T06:05:31;100615.93;;;0.77;75.87
40794;BME280;26502;51.886;15.604;2022-11-15T06:11:02;100611.55;;;0.74;76.06
40794;BME280;26502;51.886;15.604;2022-11-15T06:16:29;100609.64;;;0.78;76.10
40794;BME280;26502;51.886;15.604;2022-11-15T06:21:55;100608.07;;;0.78;75.85
40794;BME280;26502;51.886;15.604;2022-11-15T06:27:20;100617.70;;;0.80;76.16
40794;BME280;26502;51.886;15.604;2022-11-15T06:32:47;100619.30;;;0.84;75.96
40794;BME280;26502;51.886;15.604;2022-11-15T06:38:12;100621.37;;;0.80;75.87
40794;BME280;26502;51.886;15.604;2022-11-15T06:43:41;100620.88;;;0.83;76.09
40794;BME280;26502;51.886;15.604;2022-11-15T06:49:07;100630.62;;;0.78;76.07
40794;BME280;26502;51.886;15.604;2022-11-15T06:54:32;100635.91;;;0.84;76.35
40794;BME280;26502;51.886;15.604;2022-11-15T06:59:59;100638.16;;;0.81;76.22
40794;BME280;26502;51.886;15.604;2022-11-15T07:05:25;100634.49;;;0.82;76.18
40794;BME280;26502;51.886;15.604;2022-11-15T07:10:53;100633.10;;;0.85;76.40
40794;BME280;26502;51.886;15.604;2022-11-15T07:16:19;100624.29;;;0.99;76.52
40794;BME280;26502;51.886;15.604;2022-11-15T07:21:45;100628.89;;;1.09;76.42
40794;BME280;26502;51.886;15.604;2022-11-15T07:27:11;100625.77;;;1.16;76.48
40794;BME280;26502;51.886;15.604;2022-11-15T07:32:38;100623.36;;;1.25;76.67
40794;BME280;26502;51.886;15.604;2022-11-15T07:38:04;100628.45;;;1.26;76.47
40794;BME280;26502;51.886;15.604;2022-11-15T07:43:30;100630.04;;;1.30;76.89
40794;BME280;26502;51.886;15.604;2022-11-15T07:48:58;100620.27;;;1.36;76.95
40794;BME280;26502;51.886;15.604;2022-11-15T07:54:25;100614.38;;;1.50;77.27
40794;BME280;26502;51.886;15.604;2022-11-15T07:59:52;100613.86;;;1.54;77.07
40794;BME280;26502;51.886;15.604;2022-11-15T08:05:18;100611.83;;;1.75;76.95
40794;BME280;26502;51.886;15.604;2022-11-15T08:10:49;100609.59;;;1.93;77.68
40794;BME280;26502;51.886;15.604;2022-11-15T08:16:14;100605.95;;;2.08;77.47
40794;BME280;26502;51.886;15.604;2022-11-15T08:21:41;100597.89;;;2.28;77.59
40794;BME280;26502;51.886;15.604;2022-11-15T08:27:07;100596.30;;;2.48;77.71
40794;BME280;26502;51.886;15.604;2022-11-15T08:32:39;100589.81;;;2.65;77.93
40794;BME280;26502;51.886;15.604;2022-11-15T08:38:06;100588.36;;;2.89;78.09
40794;BME280;26502;51.886;15.604;2022-11-15T08:43:34;100584.26;;;3.13;78.54
40794;BME280;26502;51.886;15.604;2022-11-15T08:49:00;100583.63;;;3.39;78.59
40794;BME280;26502;51.886;15.604;2022-11-15T08:54:26;100578.03;;;3.68;78.55
40794;BME280;26502;51.886;15.604;2022-11-15T08:59:51;100574.70;;;3.97;78.74
40794;BME280;26502;51.886;15.604;2022-11-15T09:05:17;100572.34;;;4.26;78.89
40794;BME280;26502;51.886;15.604;2022-11-15T09:10:43;100573.68;;;4.55;79.18
40794;BME280;26502;51.886;15.604;2022-11-15T09:16:10;100577.21;;;4.89;79.54
40794;BME280;26502;51.886;15.604;2022-11-15T09:21:37;100569.88;;;5.29;79.97
40794;BME280;26502;51.886;15.604;2022-11-15T09:27:04;100568.40;;;5.61;80.00
40794;BME280;26502;51.886;15.604;2022-11-15T09:32:31;100569.70;;;5.95;80.06
40794;BME280;26502;51.886;15.604;2022-11-15T09:37:58;100565.41;;;6.33;80.16
40794;BME280;26502;51.886;15.604;2022-11-15T09:43:31;100556.48;;;6.59;79.96
40794;BME280;26502;51.886;15.604;2022-11-15T09:48:59;100549.36;;;6.91;80.00
40794;BME280;26502;51.886;15.604;2022-11-15T09:54:25;100545.89;;;7.23;79.98
40794;BME280;26502;51.886;15.604;2022-11-15T09:59:45;100538.59;;;7.51;79.75
40794;BME280;26502;51.886;15.604;2022-11-15T10:04:55;100537.12;;;7.77;79.60
40794;BME280;26502;51.886;15.604;2022-11-15T10:10:10;100526.61;;;7.96;79.55
40794;BME280;26502;51.886;15.604;2022-11-15T10:15:23;100517.53;;;8.20;79.30
40794;BME280;26502;51.886;15.604;2022-11-15T10:20:32;100520.67;;;8.43;79.03
40794;BME280;26502;51.886;15.604;2022-11-15T10:25:42;100512.91;;;8.69;78.97
40794;BME280;26502;51.886;15.604;2022-11-15T10:30:53;100505.02;;;8.91;78.81
40794;BME280;26502;51.886;15.604;2022-11-15T10:36:22;100493.35;;;9.16;78.51
40794;BME280;26502;51.886;15.604;2022-11-15T10:41:39;100487.34;;;9.39;78.38
40794;BME280;26502;51.886;15.604;2022-11-15T10:46:48;100485.50;;;9.64;78.13
40794;BME280;26502;51.886;15.604;2022-11-15T10:52:18;100478.52;;;9.87;77.96
40794;BME280;26502;51.886;15.604;2022-11-15T10:57:28;100471.92;;;10.21;77.77
40794;BME280;26502;51.886;15.604;2022-11-15T11:02:38;100461.67;;;10.51;77.51
40794;BME280;26502;51.886;15.604;2022-11-15T11:07:57;100450.27;;;10.78;77.30
40794;BME280;26502;51.886;15.604;2022-11-15T11:13:23;100440.70;;;11.05;76.83
40794;BME280;26502;51.886;15.604;2022-11-15T11:18:38;100439.84;;;11.36;76.52
40794;BME280;26502;51.886;15.604;2022-11-15T11:23:54;100430.39;;;11.77;75.88
40794;BME280;26502;51.886;15.604;2022-11-15T11:29:15;100424.95;;;12.14;75.41
40794;BME280;26502;51.886;15.604;2022-11-15T11:34:36;100416.95;;;12.42;74.99
40794;BME280;26502;51.886;15.604;2022-11-15T11:39:56;100412.83;;;12.86;74.56
40794;BME280;26502;51.886;15.604;2022-11-15T11:45:21;100404.77;;;13.25;74.14
40794;BME280;26502;51.886;15.604;2022-11-15T11:50:32;100392.91;;;13.64;73.66
40794;BME280;26502;51.886;15.604;2022-11-15T11:55:45;100389.44;;;14.05;73.15
40794;BME280;26502;51.886;15.604;2022-11-15T12:01:12;100389.71;;;14.34;72.52
40794;BME280;26502;51.886;15.604;2022-11-15T12:06:27;100384.20;;;14.44;71.85
40794;BME280;26502;51.886;15.604;2022-11-15T12:11:47;100379.77;;;14.29;71.40
40794;BME280;26502;51.886;15.604;2022-11-15T12:16:56;100372.70;;;14.21;71.27
40794;BME280;26502;51.886;15.604;2022-11-15T12:22:06;100371.42;;;14.25;71.18
40794;BME280;26502;51.886;15.604;2022-11-15T12:27:20;100364.96;;;14.19;70.81
40794;BME280;26502;51.886;15.604;2022-11-15T12:32:35;100366.66;;;14.17;70.59
40794;BME280;26502;51.886;15.604;2022-11-15T12:37:51;100367.20;;;14.21;70.50
40794;BME280;26502;51.886;15.604;2022-11-15T12:48:55;100343.64;;;14.07;70.11
40794;BME280;26502;51.886;15.604;2022-11-15T12:59:52;100336.54;;;14.23;69.71
40794;BME280;26502;51.886;15.604;2022-11-15T13:10:43;100330.14;;;14.49;69.33
40794;BME280;26502;51.886;15.604;2022-11-15T13:16:00;100324.06;;;14.59;69.42
40794;BME280;26502;51.886;15.604;2022-11-15T13:21:22;100319.63;;;14.66;68.97
40794;BME280;26502;51.886;15.604;2022-11-15T13:26:47;100313.13;;;14.53;68.85
40794;BME280;26502;51.886;15.604;2022-11-15T13:31:56;100316.52;;;14.43;68.76
40794;BME280;26502;51.886;15.604;2022-11-15T13:37:03;100313.83;;;14.34;68.58
40794;BME280;26502;51.886;15.604;2022-11-15T13:42:16;100307.40;;;14.13;68.47
40794;BME280;26502;51.886;15.604;2022-11-15T13:47:27;100305.20;;;13.94;68.43
40794;BME280;26502;51.886;15.604;2022-11-15T13:52:36;100295.71;;;13.77;68.64
40794;BME280;26502;51.886;15.604;2022-11-15T13:57:47;100288.55;;;13.71;68.52
40794;BME280;26502;51.886;15.604;2022-11-15T14:02:57;100290.21;;;13.52;68.46
40794;BME280;26502;51.886;15.604;2022-11-15T14:08:24;100292.56;;;13.26;68.55
40794;BME280;26502;51.886;15.604;2022-11-15T14:13:32;100286.31;;;13.08;68.62
40794;BME280;26502;51.886;15.604;2022-11-15T14:18:46;100291.72;;;12.85;68.70
40794;BME280;26502;51.886;15.604;2022-11-15T14:23:53;100293.45;;;12.63;68.68
40794;BME280;26502;51.886;15.604;2022-11-15T14:29:27;100284.44;;;12.35;68.71
40794;BME280;26502;51.886;15.604;2022-11-15T14:34:35;100283.45;;;12.06;68.69
40794;BME280;26502;51.886;15.604;2022-11-15T14:39:42;100281.89;;;11.88;69.06
40794;BME280;26502;51.886;15.604;2022-11-15T14:44:50;100279.73;;;11.72;69.05
40794;BME280;26502;51.886;15.604;2022-11-15T14:49:58;100277.88;;;11.53;68.83
40794;BME280;26502;51.886;15.604;2022-11-15T14:55:14;100274.85;;;11.32;69.09
40794;BME280;26502;51.886;15.604;2022-11-15T15:00:23;100265.30;;;11.18;69.16
40794;BME280;26502;51.886;15.604;2022-11-15T15:05:35;100262.01;;;10.94;69.40
40794;BME280;26502;51.886;15.604;2022-11-15T15:10:44;100265.21;;;10.76;69.11
40794;BME280;26502;51.886;15.604;2022-11-15T15:15:51;100265.68;;;10.51;69.15
40794;BME280;26502;51.886;15.604;2022-11-15T15:20:59;100261.53;;;10.39;69.28
40794;BME280;26502;51.886;15.604;2022-11-15T15:26:12;100258.73;;;10.27;68.93
40794;BME280;26502;51.886;15.604;2022-11-15T15:31:20;100254.00;;;10.11;68.95
40794;BME280;26502;51.886;15.604;2022-11-15T15:36:29;100254.76;;;10.01;69.23
40794;BME280;26502;51.886;15.604;2022-11-15T15:41:36;100247.98;;;9.82;69.15
40794;BME280;26502;51.886;15.604;2022-11-15T15:46:43;100242.98;;;9.63;69.48
40794;BME280;26502;51.886;15.604;2022-11-15T15:51:50;100231.72;;;9.35;69.81
40794;BME280;26502;51.886;15.604;2022-11-15T15:56:57;100230.16;;;9.08;69.64
40794;BME280;26502;51.886;15.604;2022-11-15T16:02:05;100228.64;;;8.95;69.74
40794;BME280;26502;51.886;15.604;2022-11-15T16:07:20;100228.40;;;8.86;69.63
40794;BME280;26502;51.886;15.604;2022-11-15T16:12:29;100225.27;;;8.73;69.75
40794;BME280;26502;51.886;15.604;2022-11-15T16:17:39;100229.40;;;8.66;69.84
40794;BME280;26502;51.886;15.604;2022-11-15T16:22:48;100234.18;;;8.60;69.90
40794;BME280;26502;51.886;15.604;2022-11-15T16:27:55;100232.70;;;8.39;69.62
40794;BME280;26502;51.886;15.604;2022-11-15T16:33:02;100230.36;;;8.28;70.01
40794;BME280;26502;51.886;15.604;2022-11-15T16:38:15;100231.63;;;8.20;70.41
40794;BME280;26502;51.886;15.604;2022-11-15T16:43:22;100228.08;;;8.04;70.53
40794;BME280;26502;51.886;15.604;2022-11-15T16:48:29;100231.27;;;7.84;70.54
40794;BME280;26502;51.886;15.604;2022-11-15T16:53:39;100228.98;;;7.65;70.82
40794;BME280;26502;51.886;15.604;2022-11-15T16:58:46;100227.20;;;7.60;71.09
40794;BME280;26502;51.886;15.604;2022-11-15T17:03:54;100227.70;;;7.53;71.03
40794;BME280;26502;51.886;15.604;2022-11-15T17:09:02;100223.44;;;7.41;71.20
40794;BME280;26502;51.886;15.604;2022-11-15T17:14:10;100216.14;;;7.37;71.59
40794;BME280;26502;51.886;15.604;2022-11-15T17:19:19;100216.72;;;7.28;71.64
40794;BME280;26502;51.886;15.604;2022-11-15T17:24:26;100218.50;;;7.21;71.64
40794;BME280;26502;51.886;15.604;2022-11-15T17:29:34;100209.84;;;7.07;71.65
40794;BME280;26502;51.886;15.604;2022-11-15T17:34:42;100213.40;;;6.99;71.79
40794;BME280;26502;51.886;15.604;2022-11-15T17:40:03;100212.30;;;6.94;71.96
40794;BME280;26502;51.886;15.604;2022-11-15T17:45:11;100218.32;;;6.86;72.00
40794;BME280;26502;51.886;15.604;2022-11-15T17:50:19;100222.05;;;6.78;72.07
40794;BME280;26502;51.886;15.604;2022-11-15T17:55:27;100230.23;;;6.75;72.30
40794;BME280;26502;51.886;15.604;2022-11-15T18:00:34;100226.99;;;6.78;72.59
40794;BME280;26502;51.886;15.604;2022-11-15T18:05:43;100221.03;;;6.76;72.65
40794;BME280;26502;51.886;15.604;2022-11-15T18:10:51;100221.41;;;6.67;72.49
40794;BME280;26502;51.886;15.604;2022-11-15T18:16:11;100216.19;;;6.64;72.92
40794;BME280;26502;51.886;15.604;2022-11-15T18:21:22;100214.34;;;6.67;73.00
40794;BME280;26502;51.886;15.604;2022-11-15T18:26:30;100209.81;;;6.65;72.93
40794;BME280;26502;51.886;15.604;2022-11-15T18:31:38;100202.05;;;6.58;73.28
40794;BME280;26502;51.886;15.604;2022-11-15T18:36:48;100199.19;;;6.60;73.54
40794;BME280;26502;51.886;15.604;2022-11-15T18:41:55;100193.28;;;6.55;73.57
40794;BME280;26502;51.886;15.604;2022-11-15T18:47:03;100193.14;;;6.54;73.68
40794;BME280;26502;51.886;15.604;2022-11-15T18:52:11;100191.77;;;6.52;73.78
40794;BME280;26502;51.886;15.604;2022-11-15T18:57:19;100196.27;;;6.49;73.92
40794;BME280;26502;51.886;15.604;2022-11-15T19:02:26;100200.48;;;6.49;74.06
40794;BME280;26502;51.886;15.604;2022-11-15T19:07:34;100199.92;;;6.50;74.13
40794;BME280;26502;51.886;15.604;2022-11-15T19:12:44;100197.36;;;6.47;74.14
40794;BME280;26502;51.886;15.604;2022-11-15T19:17:52;100196.75;;;6.43;74.15
40794;BME280;26502;51.886;15.604;2022-11-15T19:23:00;100190.23;;;6.43;74.43
40794;BME280;26502;51.886;15.604;2022-11-15T19:28:08;100189.30;;;6.45;74.64
40794;BME280;26502;51.886;15.604;2022-11-15T19:33:16;100187.48;;;6.47;74.73
40794;BME280;26502;51.886;15.604;2022-11-15T19:38:24;100182.86;;;6.49;74.80
40794;BME280;26502;51.886;15.604;2022-11-15T19:43:32;100172.14;;;6.47;75.02
40794;BME280;26502;51.886;15.604;2022-11-15T19:48:40;100168.45;;;6.46;75.27
40794;BME280;26502;51.886;15.604;2022-11-15T19:53:48;100170.33;;;6.49;75.37
40794;BME280;26502;51.886;15.604;2022-11-15T19:58:56;100170.98;;;6.51;75.47
40794;BME280;26502;51.886;15.604;2022-11-15T20:04:06;100167.10;;;6.51;75.58
40794;BME280;26502;51.886;15.604;2022-11-15T20:09:16;100156.80;;;6.47;75.76
40794;BME280;26502;51.886;15.604;2022-11-15T20:14:24;100144.04;;;6.42;75.79
40794;BME280;26502;51.886;15.604;2022-11-15T20:19:33;100135.74;;;6.42;75.91
40794;BME280;26502;51.886;15.604;2022-11-15T20:24:41;100138.09;;;6.40;75.88
40794;BME280;26502;51.886;15.604;2022-11-15T20:29:49;100137.55;;;6.40;75.97
40794;BME280;26502;51.886;15.604;2022-11-15T20:34:59;100133.80;;;6.35;76.00
40794;BME280;26502;51.886;15.604;2022-11-15T20:40:09;100135.79;;;6.32;76.03
40794;BME280;26502;51.886;15.604;2022-11-15T20:45:15;100134.70;;;6.34;76.15
40794;BME280;26502;51.886;15.604;2022-11-15T20:50:23;100133.79;;;6.28;76.21
40794;BME280;26502;51.886;15.604;2022-11-15T20:55:30;100127.55;;;6.23;76.18
40794;BME280;26502;51.886;15.604;2022-11-15T21:00:39;100129.94;;;6.19;76.22
40794;BME280;26502;51.886;15.604;2022-11-15T21:05:48;100128.77;;;6.08;76.21
40794;BME280;26502;51.886;15.604;2022-11-15T21:10:56;100123.56;;;5.95;76.27
40794;BME280;26502;51.886;15.604;2022-11-15T21:16:20;100120.90;;;5.88;76.54
40794;BME280;26502;51.886;15.604;2022-11-15T21:21:29;100118.22;;;5.81;76.63
40794;BME280;26502;51.886;15.604;2022-11-15T21:26:36;100118.25;;;5.80;76.70
40794;BME280;26502;51.886;15.604;2022-11-15T21:31:44;100119.42;;;5.75;76.72
40794;BME280;26502;51.886;15.604;2022-11-15T21:36:53;100122.73;;;5.68;76.86
40794;BME280;26502;51.886;15.604;2022-11-15T21:42:00;100118.98;;;5.62;76.87
40794;BME280;26502;51.886;15.604;2022-11-15T21:47:07;100117.69;;;5.57;76.99
40794;BME280;26502;51.886;15.604;2022-11-15T21:52:15;100110.52;;;5.47;77.09
40794;BME280;26502;51.886;15.604;2022-11-15T21:57:23;100112.84;;;5.45;77.14
40794;BME280;26502;51.886;15.604;2022-11-15T22:02:35;100118.05;;;5.39;77.29
40794;BME280;26502;51.886;15.604;2022-11-15T22:07:42;100124.55;;;5.32;77.21
40794;BME280;26502;51.886;15.604;2022-11-15T22:12:50;100122.47;;;5.21;77.53
40794;BME280;26502;51.886;15.604;2022-11-15T22:17:57;100118.34;;;5.06;77.65
40794;BME280;26502;51.886;15.604;2022-11-15T22:23:05;100113.50;;;5.02;77.65
40794;BME280;26502;51.886;15.604;2022-11-15T22:28:12;100114.38;;;5.02;77.77
40794;BME280;26502;51.886;15.604;2022-11-15T22:33:21;100114.27;;;5.07;77.85
40794;BME280;26502;51.886;15.604;2022-11-15T22:38:29;100103.02;;;5.06;77.76
40794;BME280;26502;51.886;15.604;2022-11-15T22:43:37;100099.80;;;5.10;77.82
40794;BME280;26502;51.886;15.604;2022-11-15T22:48:44;100092.80;;;5.08;77.80
40794;BME280;26502;51.886;15.604;2022-11-15T22:53:52;100096.47;;;4.99;78.07
40794;BME280;26502;51.886;15.604;2022-11-15T22:59:00;100105.48;;;4.97;78.10
40794;BME280;26502;51.886;15.604;2022-11-15T23:04:07;100103.62;;;4.93;78.17
40794;BME280;26502;51.886;15.604;2022-11-15T23:09:15;100097.82;;;4.93;78.18
40794;BME280;26502;51.886;15.604;2022-11-15T23:14:23;100084.17;;;4.98;78.54
40794;BME280;26502;51.886;15.604;2022-11-15T23:19:31;100075.27;;;4.94;78.54
40794;BME280;26502;51.886;15.604;2022-11-15T23:24:38;100065.92;;;4.95;78.57
40794;BME280;26502;51.886;15.604;2022-11-15T23:29:46;100061.24;;;5.01;78.79
40794;BME280;26502;51.886;15.604;2022-11-15T23:35:10;100075.53;;;5.08;78.64
40794;BME280;26502;51.886;15.604;2022-11-15T23:40:18;100087.45;;;5.11;78.61
40794;BME280;26502;51.886;15.604;2022-11-15T23:45:25;100094.14;;;5.10;78.60
40794;BME280;26502;51.886;15.604;2022-11-15T23:50:34;100091.05;;;5.07;78.68
40794;BME280;26502;51.886;15.604;2022-11-15T23:55:41;100087.38;;;5.06;78.72
